TimeCST,TemperatureF,Dew PointF,Humidity,Sea Level PressureIn,VisibilityMPH,Wind Direction,Wind SpeedMPH,Gust SpeedMPH,PrecipitationIn,Events,Conditions,WindDirDegrees,DateUTC
12:15 AM,44.6,32.0,61,29.93,10.0,North,-9999.0,-,N/A,,Clear,0,2013-01-28 06:15:00
12:35 AM,46.4,32.0,57,29.92,10.0,North,-9999.0,-,N/A,,Clear,0,2013-01-28 06:35:00
12:55 AM,46.4,32.0,57,29.92,10.0,North,-9999.0,-,N/A,,Clear,0,2013-01-28 06:55:00
1:15 AM,42.8,32.0,66,29.91,10.0,North,-9999.0,-,N/A,,Clear,0,2013-01-28 07:15:00
1:35 AM,44.6,32.0,61,29.91,10.0,North,-9999.0,-,N/A,,Clear,0,2013-01-28 07:35:00
1:55 AM,41.0,30.2,65,29.90,10.0,North,-9999.0,-,N/A,,Clear,0,2013-01-28 07:55:00
2:15 AM,37.4,30.2,75,29.91,10.0,North,-9999.0,-,N/A,,Clear,0,2013-01-28 08:15:00
2:35 AM,42.8,32.0,66,29.91,10.0,North,-9999.0,-,N/A,,Clear,0,2013-01-28 08:35:00
2:55 AM,42.8,32.0,66,29.91,10.0,North,-9999.0,-,N/A,,Clear,0,2013-01-28 08:55:00
3:15 AM,42.8,32.0,66,29.91,10.0,North,-9999.0,-,N/A,,Clear,0,2013-01-28 09:15:00
3:35 AM,42.8,32.0,66,29.91,10.0,North,-9999.0,-,N/A,,Clear,0,2013-01-28 09:35:00
3:55 AM,42.8,32.0,66,29.90,10.0,North,-9999.0,-,N/A,,Clear,0,2013-01-28 09:55:00
4:15 AM,42.8,32.0,66,29.90,10.0,North,-9999.0,-,N/A,,Clear,0,2013-01-28 10:15:00
4:35 AM,41.0,32.0,70,29.90,10.0,North,-9999.0,-,N/A,,Clear,0,2013-01-28 10:35:00
4:55 AM,41.0,32.0,70,29.90,10.0,North,-9999.0,-,N/A,,Clear,0,2013-01-28 10:55:00
5:15 AM,41.0,32.0,70,29.89,10.0,North,-9999.0,-,N/A,,Clear,0,2013-01-28 11:15:00
5:35 AM,37.4,32.0,81,29.90,10.0,North,-9999.0,-,N/A,,Clear,0,2013-01-28 11:35:00
5:55 AM,37.4,32.0,81,29.90,10.0,North,-9999.0,-,N/A,,Clear,0,2013-01-28 11:55:00
6:15 AM,37.4,32.0,81,29.89,10.0,North,-9999.0,-,N/A,,Clear,0,2013-01-28 12:15:00
6:35 AM,35.6,30.2,81,29.90,10.0,North,-9999.0,-,N/A,,Clear,0,2013-01-28 12:35:00
6:55 AM,37.4,32.0,81,29.90,10.0,North,-9999.0,-,N/A,,Clear,0,2013-01-28 12:55:00
7:15 AM,37.4,32.0,81,29.90,10.0,North,-9999.0,-,N/A,,Clear,0,2013-01-28 13:15:00
7:35 AM,37.4,32.0,81,29.90,10.0,North,-9999.0,-,N/A,,Clear,0,2013-01-28 13:35:00
7:55 AM,37.4,32.0,81,29.90,10.0,North,-9999.0,-,N/A,,Clear,0,2013-01-28 13:55:00
8:15 AM,41.0,32.0,70,29.90,10.0,North,-9999.0,-,N/A,,Clear,0,2013-01-28 14:15:00
8:35 AM,37.4,32.0,81,29.90,10.0,North,-9999.0,-,N/A,,Clear,0,2013-01-28 14:35:00
8:55 AM,41.0,33.8,76,29.90,10.0,North,-9999.0,-,N/A,,Clear,0,2013-01-28 14:55:00
9:15 AM,44.6,33.8,66,29.89,10.0,North,-9999.0,-,N/A,,Clear,0,2013-01-28 15:15:00
9:35 AM,46.4,33.8,62,29.89,10.0,North,-9999.0,-,N/A,,Clear,0,2013-01-28 15:35:00
9:55 AM,50.0,35.6,58,29.89,10.0,North,-9999.0,-,N/A,,Clear,0,2013-01-28 15:55:00
10:15 AM,53.6,35.6,51,29.89,10.0,North,-9999.0,-,N/A,,Clear,0,2013-01-28 16:15:00
10:35 AM,57.2,37.4,48,29.88,10.0,North,-9999.0,-,N/A,,Clear,0,2013-01-28 16:35:00
10:55 AM,59.0,35.6,42,29.88,10.0,North,-9999.0,-,N/A,,Clear,0,2013-01-28 16:55:00
11:15 AM,60.8,35.6,39,29.88,10.0,North,-9999.0,-,N/A,,Clear,0,2013-01-28 17:15:00
11:35 AM,60.8,35.6,39,29.88,10.0,North,-9999.0,-,N/A,,Clear,0,2013-01-28 17:35:00
11:55 AM,62.6,35.6,37,29.87,10.0,North,-9999.0,-,N/A,,Clear,0,2013-01-28 17:55:00
12:35 PM,64.4,33.8,32,29.84,10.0,North,-9999.0,-,N/A,,Clear,0,2013-01-28 18:35:00
12:55 PM,68.0,32.0,26,29.82,10.0,North,-9999.0,-,N/A,,Clear,0,2013-01-28 18:55:00
1:15 PM,68.0,30.2,24,29.80,10.0,North,-9999.0,-,N/A,,Clear,0,2013-01-28 19:15:00
1:35 PM,68.0,30.2,24,29.79,10.0,North,-9999.0,-,N/A,,Clear,0,2013-01-28 19:35:00
1:55 PM,68.0,30.2,24,29.78,10.0,North,-9999.0,-,N/A,,Clear,0,2013-01-28 19:55:00
2:15 PM,68.0,28.4,23,29.77,10.0,North,-9999.0,-,N/A,,Clear,0,2013-01-28 20:15:00
2:35 PM,68.0,26.6,21,29.77,10.0,North,-9999.0,-,N/A,,Clear,0,2013-01-28 20:35:00
2:55 PM,68.0,26.6,21,29.77,10.0,North,-9999.0,-,N/A,,Clear,0,2013-01-28 20:55:00
3:15 PM,68.0,28.4,23,29.76,10.0,North,-9999.0,-,N/A,,Clear,0,2013-01-28 21:15:00
3:35 PM,68.0,28.4,23,29.75,10.0,North,-9999.0,-,N/A,,Clear,0,2013-01-28 21:35:00
3:55 PM,68.0,28.4,23,29.76,10.0,North,-9999.0,-,N/A,,Clear,0,2013-01-28 21:55:00
4:15 PM,66.2,28.4,24,29.76,10.0,North,-9999.0,-,N/A,,Clear,0,2013-01-28 22:15:00
4:35 PM,66.2,30.2,26,29.76,10.0,North,-9999.0,-,N/A,,Clear,0,2013-01-28 22:35:00
4:55 PM,64.4,30.2,28,29.76,10.0,North,-9999.0,-,N/A,,Clear,0,2013-01-28 22:55:00
5:15 PM,64.4,28.4,26,29.76,10.0,North,-9999.0,-,N/A,,Clear,0,2013-01-28 23:15:00
5:35 PM,64.4,28.4,26,29.75,10.0,North,-9999.0,-,N/A,,Clear,0,2013-01-28 23:35:00
5:55 PM,62.6,26.6,26,29.75,10.0,North,-9999.0,-,N/A,,Clear,0,2013-01-28 23:55:00
6:15 PM,62.6,26.6,26,29.76,10.0,North,-9999.0,-,N/A,,Clear,0,2013-01-29 00:15:00
6:35 PM,60.8,26.6,27,29.76,10.0,North,-9999.0,-,N/A,,Clear,0,2013-01-29 00:35:00
6:55 PM,60.8,28.4,29,29.77,10.0,North,-9999.0,-,N/A,,Clear,0,2013-01-29 00:55:00
7:15 PM,60.8,30.2,31,29.78,10.0,North,-9999.0,-,N/A,,Clear,0,2013-01-29 01:15:00
7:35 PM,59.0,30.2,34,29.78,10.0,North,-9999.0,-,N/A,,Clear,0,2013-01-29 01:35:00
7:55 PM,59.0,28.4,31,29.78,10.0,North,-9999.0,-,N/A,,Clear,0,2013-01-29 01:55:00
8:15 PM,57.2,28.4,33,29.79,10.0,North,-9999.0,-,N/A,,Clear,0,2013-01-29 02:15:00
8:35 PM,55.4,28.4,36,29.79,10.0,North,-9999.0,-,N/A,,Clear,0,2013-01-29 02:35:00
8:55 PM,55.4,28.4,36,29.79,10.0,North,-9999.0,-,N/A,,Clear,0,2013-01-29 02:55:00
9:15 PM,55.4,26.6,33,29.78,10.0,North,-9999.0,-,N/A,,Clear,0,2013-01-29 03:15:00
9:35 PM,53.6,28.4,38,29.78,10.0,North,-9999.0,-,N/A,,Clear,0,2013-01-29 03:35:00
9:55 PM,53.6,28.4,38,29.77,10.0,North,-9999.0,-,N/A,,Clear,0,2013-01-29 03:55:00
10:15 PM,53.6,28.4,38,29.77,10.0,North,-9999.0,-,N/A,,Clear,0,2013-01-29 04:15:00
10:35 PM,53.6,28.4,38,29.76,10.0,North,-9999.0,-,N/A,,Clear,0,2013-01-29 04:35:00
10:55 PM,51.8,28.4,41,29.76,10.0,North,-9999.0,-,N/A,,Clear,0,2013-01-29 04:55:00
11:15 PM,50.0,28.4,43,29.75,10.0,North,-9999.0,-,N/A,,Clear,0,2013-01-29 05:15:00
11:35 PM,50.0,28.4,43,29.75,10.0,North,-9999.0,-,N/A,,Clear,0,2013-01-29 05:35:00
11:55 PM,44.6,28.4,53,29.75,10.0,North,-9999.0,-,N/A,,Clear,0,2013-01-29 05:55:00